Time;durP1;ratioP1;P1;durP2;ratioP2;P2;SDS_P1;SDS_P2;PMS_P1;PMS_P2;Temp;Humidity;BMP_temperature;BMP_pressure;BME280_temperature;BME280_humidity;BME280_pressure;Samples;Min_cycle;Max_cycle;Signal;HPM_P1;HPM_P2
2020/12/03 00:01:24;;;;;;;54.33;31.00;;;2.40;99.90;;;;;;10385889;28;20272;-81
2020/12/03 00:06:50;;;;;;;48.07;28.73;;;2.40;99.90;;;;;;10425859;28;20231;-81
2020/12/03 00:12:13;;;;;;;52.37;30.67;;;2.50;99.90;;;;;;10459667;28;20187;-80
2020/12/03 00:17:34;;;;;;;54.80;30.90;;;2.50;99.90;;;;;;10464250;28;20197;-81
2020/12/03 00:22:56;;;;;;;50.33;30.13;;;2.40;99.90;;;;;;10463842;28;20195;-81
2020/12/03 00:28:18;;;;;;;52.23;29.77;;;2.50;99.90;;;;;;10426089;28;20270;-81
2020/12/03 00:33:40;;;;;;;54.40;31.20;;;2.40;99.90;;;;;;10413533;28;20239;-79
2020/12/03 00:39:03;;;;;;;49.60;28.93;;;2.50;99.90;;;;;;10416275;28;20428;-81
2020/12/03 00:44:25;;;;;;;64.77;30.53;;;2.40;99.90;;;;;;10409261;28;20332;-80
2020/12/03 00:49:47;;;;;;;51.93;29.03;;;2.40;99.90;;;;;;10424077;28;20346;-81
2020/12/03 00:55:10;;;;;;;49.00;28.40;;;2.20;99.90;;;;;;10424234;28;20262;-81
2020/12/03 01:00:32;;;;;;;53.20;30.13;;;2.30;99.90;;;;;;10424333;28;20272;-80
2020/12/03 01:05:54;;;;;;;54.80;31.13;;;2.30;99.90;;;;;;10382897;28;20308;-81
2020/12/03 01:11:19;;;;;;;49.50;28.87;;;2.30;99.90;;;;;;10383414;28;20242;-81
2020/12/03 01:16:41;;;;;;;50.77;29.93;;;2.30;99.90;;;;;;10386632;28;20293;-81
2020/12/03 01:22:03;;;;;;;49.23;27.57;;;2.30;99.90;;;;;;10416688;28;20305;-81
2020/12/03 01:27:25;;;;;;;53.73;30.87;;;2.20;99.90;;;;;;10417006;28;20304;-80
2020/12/03 01:32:47;;;;;;;53.10;30.03;;;2.20;99.90;;;;;;10424581;28;20252;-80
2020/12/03 01:38:09;;;;;;;50.47;29.03;;;2.30;99.90;;;;;;10423653;28;20293;-81
2020/12/03 01:43:30;;;;;;;48.03;28.53;;;2.40;99.90;;;;;;10422985;28;20296;-81
2020/12/03 01:48:56;;;;;;;47.83;28.70;;;2.30;99.90;;;;;;10422786;28;20213;-81
2020/12/03 01:54:20;;;;;;;45.60;26.90;;;2.30;99.90;;;;;;10410785;28;20249;-81
2020/12/03 01:59:44;;;;;;;51.87;29.73;;;2.40;99.90;;;;;;10382181;28;20871;-79
2020/12/03 02:05:10;;;;;;;48.20;28.33;;;2.40;99.90;;;;;;10382072;28;20187;-81
2020/12/03 02:10:31;;;;;;;49.13;27.93;;;2.40;99.90;;;;;;10382037;28;20221;-79
2020/12/03 02:15:53;;;;;;;47.53;27.90;;;2.40;99.90;;;;;;10384522;28;20242;-79
2020/12/03 02:21:15;;;;;;;50.83;27.83;;;2.40;99.90;;;;;;10407210;28;20278;-81
2020/12/03 02:26:37;;;;;;;46.73;27.43;;;2.30;99.90;;;;;;10419379;28;20250;-79
2020/12/03 02:31:58;;;;;;;44.10;27.03;;;2.30;99.90;;;;;;10419971;28;20205;-81
2020/12/03 02:37:21;;;;;;;45.70;26.07;;;2.20;99.90;;;;;;10419471;28;20361;-79
2020/12/03 02:42:42;;;;;;;43.57;26.53;;;2.40;99.90;;;;;;10420073;28;20272;-80
2020/12/03 02:48:04;;;;;;;41.50;26.37;;;2.40;99.90;;;;;;10418873;28;20285;-81
2020/12/03 02:53:26;;;;;;;48.37;28.07;;;2.40;99.90;;;;;;10419181;28;20658;-81
2020/12/03 02:58:48;;;;;;;42.73;26.60;;;2.30;99.90;;;;;;10390405;28;20296;-80
2020/12/03 03:04:09;;;;;;;47.93;26.73;;;2.30;99.90;;;;;;10374004;28;20312;-80
2020/12/03 03:09:32;;;;;;;42.80;26.27;;;2.30;99.90;;;;;;10379448;28;20238;-81
2020/12/03 03:14:53;;;;;;;46.80;26.73;;;2.30;99.90;;;;;;10386635;28;20191;-81
2020/12/03 03:20:15;;;;;;;45.57;26.77;;;2.30;99.90;;;;;;10418929;28;20218;-81
2020/12/03 03:25:37;;;;;;;45.27;26.47;;;2.30;99.90;;;;;;10395876;28;20765;-80
2020/12/03 03:30:59;;;;;;;41.90;24.83;;;2.20;99.90;;;;;;10378238;28;20194;-81
2020/12/03 03:36:20;;;;;;;44.57;25.33;;;2.30;99.90;;;;;;10376492;28;20719;-80
2020/12/03 03:41:42;;;;;;;41.87;25.30;;;2.40;99.90;;;;;;10376628;28;20613;-80
2020/12/03 03:47:04;;;;;;;43.73;24.93;;;2.30;99.90;;;;;;10376228;28;20332;-78
2020/12/03 03:52:25;;;;;;;43.70;25.30;;;2.30;99.90;;;;;;10386355;28;20253;-80
2020/12/03 03:57:48;;;;;;;44.00;25.03;;;2.40;99.90;;;;;;10399184;28;20245;-80
2020/12/03 04:03:12;;;;;;;39.83;25.20;;;2.30;99.90;;;;;;10425312;28;20210;-80
2020/12/03 04:08:34;;;;;;;41.70;23.90;;;2.20;99.90;;;;;;10449593;28;20226;-80
2020/12/03 04:13:56;;;;;;;38.40;24.60;;;2.20;99.90;;;;;;10464433;28;20236;-79
2020/12/03 04:19:18;;;;;;;39.80;23.70;;;2.10;99.90;;;;;;10463631;28;20206;-81
2020/12/03 04:24:39;;;;;;;40.67;24.50;;;2.10;99.90;;;;;;10433415;28;20224;-81
2020/12/03 04:30:02;;;;;;;42.40;25.10;;;2.20;99.90;;;;;;10417732;28;20584;-81
2020/12/03 04:35:24;;;;;;;43.10;25.17;;;2.10;99.90;;;;;;10403692;28;20624;-82
2020/12/03 04:40:47;;;;;;;41.17;24.57;;;2.00;99.90;;;;;;10392867;28;20305;-81
2020/12/03 04:46:22;;;;;;;43.77;25.23;;;2.10;99.90;;;;;;10376959;28;20245;-81
2020/12/03 04:52:23;;;;;;;40.43;24.20;;;1.90;99.90;;;;;;10378089;28;20187;-81
2020/12/03 04:57:50;;;;;;;39.73;24.37;;;1.90;99.90;;;;;;10377062;28;20225;-80
2020/12/03 05:03:51;;;;;;;39.60;25.00;;;2.00;99.90;;;;;;10409577;28;20233;-81
2020/12/03 05:09:19;;;;;;;40.50;23.77;;;2.10;99.90;;;;;;10416325;28;20217;-79
2020/12/03 05:14:45;;;;;;;40.47;23.33;;;2.10;99.90;;;;;;10379888;28;20204;-81
2020/12/03 05:20:45;;;;;;;39.37;24.33;;;2.20;99.90;;;;;;10408674;28;20270;-82
2020/12/03 05:26:14;;;;;;;41.37;23.77;;;2.20;99.90;;;;;;10408581;28;20241;-81
2020/12/03 05:31:40;;;;;;;39.70;23.43;;;2.10;99.90;;;;;;10422862;28;20233;-81
2020/12/03 05:37:06;;;;;;;42.67;24.77;;;1.90;99.90;;;;;;10423832;28;20297;-80
2020/12/03 05:42:32;;;;;;;42.70;24.53;;;2.00;99.90;;;;;;10424941;28;20246;-83
2020/12/03 05:47:57;;;;;;;41.50;24.03;;;2.10;99.90;;;;;;10423342;28;20312;-82
2020/12/03 05:53:21;;;;;;;39.90;23.77;;;2.10;99.90;;;;;;10414191;28;20200;-82
2020/12/03 05:58:43;;;;;;;34.70;21.23;;;2.20;99.90;;;;;;10388398;28;20216;-84
2020/12/03 06:04:21;;;;;;;38.30;22.80;;;2.10;99.90;;;;;;10381857;28;20259;-84
2020/12/03 06:10:00;;;;;;;42.27;22.50;;;2.10;99.90;;;;;;10383352;28;20242;-83
2020/12/03 06:15:36;;;;;;;37.70;21.97;;;2.20;99.90;;;;;;10407763;28;20280;-84
2020/12/03 06:21:17;;;;;;;38.37;22.03;;;2.20;99.90;;;;;;10382836;28;20241;-84
2020/12/03 06:26:51;;;;;;;34.20;21.77;;;2.30;99.90;;;;;;10391454;28;20243;-84
2020/12/03 06:32:41;;;;;;;37.90;21.97;;;2.40;99.90;;;;;;10402113;28;20272;-82
2020/12/03 06:38:25;;;;;;;36.10;20.67;;;2.30;99.90;;;;;;10380929;28;20212;-82
2020/12/03 06:43:51;;;;;;;38.17;20.87;;;2.30;99.90;;;;;;10399716;28;20602;-84
2020/12/03 06:49:45;;;;;;;37.37;21.63;;;2.20;99.90;;;;;;10423300;28;20221;-84
2020/12/03 06:55:36;;;;;;;38.30;20.70;;;2.20;99.90;;;;;;10421832;28;20196;-82
2020/12/03 07:01:36;;;;;;;33.17;21.00;;;2.20;99.90;;;;;;10417001;28;20642;-84
2020/12/03 07:07:32;;;;;;;34.77;21.33;;;2.20;99.90;;;;;;10410322;22;20711;-86
2020/12/03 07:13:25;;;;;;;36.30;20.23;;;2.30;99.90;;;;;;10441497;28;20238;-84
2020/12/03 07:19:37;;;;;;;36.50;20.17;;;2.20;99.90;;;;;;10431817;28;20301;-82
2020/12/03 07:25:00;;;;;;;33.17;19.70;;;2.20;99.90;;;;;;10429638;28;20194;-82
2020/12/03 07:30:40;;;;;;;33.47;19.53;;;2.40;99.90;;;;;;10384286;28;20289;-84
2020/12/03 07:36:27;;;;;;;34.33;19.43;;;2.30;99.90;;;;;;10393859;28;20620;-84
2020/12/03 07:41:53;;;;;;;34.27;19.90;;;2.20;99.90;;;;;;10438922;28;20238;-84
2020/12/03 07:47:20;;;;;;;32.27;20.13;;;2.30;99.90;;;;;;10463711;28;20287;-85
2020/12/03 07:52:42;;;;;;;35.10;20.37;;;2.20;99.90;;;;;;10415882;28;20199;-83
2020/12/03 07:58:05;;;;;;;34.27;20.20;;;2.30;99.90;;;;;;10430771;28;20237;-84
2020/12/03 08:03:46;;;;;;;34.77;20.70;;;2.30;99.90;;;;;;10393089;28;20212;-84
2020/12/03 08:09:23;;;;;;;34.90;20.33;;;2.50;99.90;;;;;;10412290;28;20544;-84
2020/12/03 08:14:48;;;;;;;35.30;20.07;;;2.30;99.90;;;;;;10417985;28;20252;-82
2020/12/03 08:20:29;;;;;;;33.70;19.97;;;2.40;99.90;;;;;;10420167;28;20244;-83
2020/12/03 08:25:50;;;;;;;29.60;18.23;;;2.40;99.90;;;;;;10408806;28;20237;-83
2020/12/03 08:31:12;;;;;;;31.40;18.70;;;2.40;99.90;;;;;;10418279;28;20199;-85
2020/12/03 08:36:34;;;;;;;31.57;18.33;;;2.40;99.90;;;;;;10419338;28;20214;-84
2020/12/03 08:41:56;;;;;;;32.30;19.17;;;2.40;99.90;;;;;;10403298;28;20231;-82
2020/12/03 08:47:30;;;;;;;31.27;18.20;;;2.50;99.90;;;;;;10425218;28;20285;-84
2020/12/03 08:52:54;;;;;;;31.17;18.20;;;2.70;99.90;;;;;;10440518;28;20188;-83
2020/12/03 08:58:20;;;;;;;31.13;17.33;;;2.60;99.90;;;;;;10442870;28;20216;-83
2020/12/03 09:03:44;;;;;;;28.50;17.00;;;2.60;99.90;;;;;;10420331;28;20200;-82
2020/12/03 09:09:06;;;;;;;29.73;18.40;;;2.60;99.90;;;;;;10431453;28;20223;-83
2020/12/03 09:14:34;;;;;;;30.17;17.97;;;2.60;99.90;;;;;;10405368;28;20232;-85
2020/12/03 09:20:01;;;;;;;30.27;19.03;;;2.70;99.90;;;;;;10415437;28;20212;-84
2020/12/03 09:25:25;;;;;;;32.13;19.43;;;2.80;99.90;;;;;;10424993;28;20273;-84
2020/12/03 09:30:48;;;;;;;33.00;19.23;;;3.10;99.90;;;;;;10429627;28;20226;-84
2020/12/03 09:36:11;;;;;;;31.60;17.80;;;3.10;99.90;;;;;;10430642;28;20227;-84
2020/12/03 09:41:34;;;;;;;28.47;17.80;;;3.00;99.90;;;;;;10429177;28;20482;-82
2020/12/03 09:46:56;;;;;;;30.17;18.00;;;3.00;99.90;;;;;;10452095;28;20698;-86
2020/12/03 09:52:19;;;;;;;27.97;17.57;;;3.00;99.90;;;;;;10435851;28;20565;-86
2020/12/03 09:57:51;;;;;;;26.80;17.33;;;3.10;99.90;;;;;;10437384;28;20221;-83
2020/12/03 10:03:46;;;;;;;26.47;16.60;;;3.20;99.90;;;;;;10446297;28;20607;-85
2020/12/03 10:09:27;;;;;;;28.10;16.90;;;3.10;99.90;;;;;;10424586;28;20371;-84
2020/12/03 10:15:22;;;;;;;26.33;17.73;;;3.10;99.90;;;;;;10425775;28;20197;-83
2020/12/03 10:20:48;;;;;;;26.70;16.77;;;3.40;99.90;;;;;;10417096;28;20226;-84
2020/12/03 10:26:18;;;;;;;26.27;16.70;;;3.40;99.90;;;;;;10410267;28;20226;-83
2020/12/03 10:31:42;;;;;;;27.70;17.20;;;3.50;99.90;;;;;;10378617;28;20667;-84
2020/12/03 10:37:10;;;;;;;29.63;18.20;;;3.50;99.90;;;;;;10400766;28;20217;-83
2020/12/03 10:42:38;;;;;;;26.97;17.13;;;3.50;99.90;;;;;;10397504;28;20650;-84
2020/12/03 10:48:06;;;;;;;28.97;17.03;;;3.70;99.90;;;;;;10381961;28;20584;-85
2020/12/03 10:53:30;;;;;;;29.23;18.37;;;3.80;99.90;;;;;;10441783;28;20547;-85
2020/12/03 10:59:32;;;;;;;29.83;19.10;;;3.90;99.90;;;;;;10423030;28;20670;-81
2020/12/03 11:04:54;;;;;;;26.17;16.30;;;3.80;99.90;;;;;;10422203;28;20198;-81
2020/12/03 11:10:17;;;;;;;27.80;15.83;;;3.90;99.90;;;;;;10422793;28;20225;-84
2020/12/03 11:15:39;;;;;;;27.20;16.73;;;4.00;99.90;;;;;;10423472;28;20198;-84
2020/12/03 11:21:07;;;;;;;26.97;17.13;;;4.00;99.90;;;;;;10424518;28;20219;-86
2020/12/03 11:26:32;;;;;;;25.97;17.13;;;4.00;99.90;;;;;;10423833;28;20759;-84
2020/12/03 11:31:57;;;;;;;27.80;16.47;;;3.90;99.90;;;;;;10425412;28;20291;-82
2020/12/03 11:37:22;;;;;;;24.73;15.60;;;4.00;99.90;;;;;;10448848;28;20249;-83
2020/12/03 11:42:54;;;;;;;27.80;17.60;;;3.80;99.90;;;;;;10439592;28;20281;-84
2020/12/03 11:54:07;;;;;;;25.47;16.60;;;3.90;99.90;;;;;;10450890;28;20284;-82
2020/12/03 11:59:35;;;;;;;25.53;16.03;;;3.90;99.90;;;;;;10456917;28;20218;-83
2020/12/03 12:05:06;;;;;;;27.30;17.43;;;3.60;99.90;;;;;;10441665;28;20197;-80
2020/12/03 12:10:31;;;;;;;28.13;18.33;;;3.70;99.90;;;;;;10422651;28;20233;-82
2020/12/03 12:15:54;;;;;;;29.33;17.80;;;3.70;99.90;;;;;;10415606;28;20218;-85
2020/12/03 12:21:15;;;;;;;26.50;17.70;;;3.80;99.90;;;;;;10420981;28;20206;-86
2020/12/03 12:26:37;;;;;;;27.33;17.77;;;3.80;99.90;;;;;;10420828;28;21294;-83
2020/12/03 12:32:13;;;;;;;31.33;18.93;;;3.80;99.90;;;;;;10382952;28;20190;-81
2020/12/03 12:37:35;;;;;;;28.37;16.30;;;3.80;99.90;;;;;;10428348;28;20256;-80
2020/12/03 12:42:56;;;;;;;26.40;16.20;;;3.80;99.90;;;;;;10446042;28;20241;-80
2020/12/03 12:48:20;;;;;;;26.03;16.10;;;3.80;99.90;;;;;;10427124;28;20233;-84
2020/12/03 12:53:42;;;;;;;28.80;16.53;;;3.80;99.90;;;;;;10426556;28;20202;-81
2020/12/03 12:59:04;;;;;;;26.13;16.33;;;3.80;99.90;;;;;;10428749;28;20271;-83
2020/12/03 13:04:26;;;;;;;27.43;15.93;;;3.90;99.90;;;;;;10387903;28;20208;-82
2020/12/03 13:09:48;;;;;;;27.63;15.80;;;3.90;99.90;;;;;;10421130;22;20648;-84
2020/12/03 13:15:10;;;;;;;24.47;15.20;;;4.00;99.90;;;;;;10446632;28;20561;-84
2020/12/03 13:20:32;;;;;;;21.83;14.23;;;4.00;99.90;;;;;;10445421;28;20218;-84
2020/12/03 13:25:54;;;;;;;22.63;15.10;;;4.20;99.90;;;;;;10406836;28;20190;-83
2020/12/03 13:31:16;;;;;;;26.87;15.60;;;4.00;99.90;;;;;;10398812;28;20245;-84
2020/12/03 13:36:38;;;;;;;22.43;13.77;;;4.20;99.90;;;;;;10414423;28;20201;-84
2020/12/03 13:42:00;;;;;;;24.83;15.43;;;4.20;99.90;;;;;;10402601;28;20221;-84
2020/12/03 13:47:23;;;;;;;22.63;14.47;;;4.10;99.90;;;;;;10436354;28;20193;-81
2020/12/03 13:59:14;;;;;;;21.27;13.60;;;4.00;99.90;;;;;;10389555;28;20267;-83
2020/12/03 14:04:36;;;;;;;21.43;14.37;;;3.90;99.90;;;;;;10387290;28;20215;-85
2020/12/03 14:09:57;;;;;;;23.07;14.37;;;3.90;99.90;;;;;;10400200;28;20226;-83
2020/12/03 14:15:20;;;;;;;24.47;14.50;;;3.90;99.90;;;;;;10422571;28;20555;-84
2020/12/03 14:20:42;;;;;;;23.40;14.33;;;4.00;99.90;;;;;;10446837;28;20214;-84
2020/12/03 14:26:05;;;;;;;21.67;13.23;;;3.90;99.90;;;;;;10436243;28;20249;-82
2020/12/03 14:31:27;;;;;;;22.07;13.73;;;3.90;99.90;;;;;;10415964;28;21033;-81
2020/12/03 14:36:49;;;;;;;22.87;13.80;;;3.80;99.90;;;;;;10428182;28;20202;-84
2020/12/03 14:42:10;;;;;;;21.27;12.97;;;3.80;99.90;;;;;;10439110;28;20206;-83
2020/12/03 14:47:33;;;;;;;22.33;13.70;;;3.80;99.90;;;;;;10451187;28;20637;-83
2020/12/03 14:52:56;;;;;;;19.93;13.13;;;3.60;99.90;;;;;;10436240;28;20215;-83
2020/12/03 14:58:21;;;;;;;23.53;13.63;;;3.70;99.90;;;;;;10440798;28;20209;-83
2020/12/03 15:03:43;;;;;;;22.93;13.90;;;3.70;99.90;;;;;;10412179;28;20214;-82
2020/12/03 15:09:05;;;;;;;19.90;12.93;;;3.70;99.90;;;;;;10404234;28;20222;-82
2020/12/03 15:14:26;;;;;;;20.97;12.60;;;3.60;99.90;;;;;;10383421;28;20567;-84
2020/12/03 15:19:49;;;;;;;23.10;13.43;;;3.50;99.90;;;;;;10416447;28;20310;-83
2020/12/03 15:25:11;;;;;;;20.67;12.80;;;3.40;99.90;;;;;;10432031;28;20182;-83
2020/12/03 15:30:32;;;;;;;21.97;13.43;;;3.30;99.90;;;;;;10302760;28;20222;-84
2020/12/03 15:35:55;;;;;;;19.90;12.87;;;3.10;99.90;;;;;;10317594;28;20293;-86
2020/12/03 15:41:17;;;;;;;22.57;13.07;;;3.10;99.90;;;;;;10312709;28;20299;-82
2020/12/03 15:46:38;;;;;;;28.70;14.87;;;3.10;99.90;;;;;;10341483;28;20224;-83
2020/12/03 15:52:01;;;;;;;24.60;14.07;;;3.00;99.90;;;;;;10322958;28;20219;-82
2020/12/03 15:57:23;;;;;;;23.17;13.60;;;3.00;99.90;;;;;;10315874;28;20807;-83
2020/12/03 16:02:45;;;;;;;22.97;13.83;;;3.00;99.90;;;;;;10269868;28;20246;-85
2020/12/03 16:08:07;;;;;;;23.47;14.23;;;3.10;99.90;;;;;;10279880;28;20269;-83
2020/12/03 16:13:30;;;;;;;20.93;13.13;;;3.00;99.90;;;;;;10313547;28;20249;-82
2020/12/03 16:18:51;;;;;;;26.97;13.37;;;3.00;99.90;;;;;;10306074;28;20214;-84
2020/12/03 16:24:14;;;;;;;21.83;13.27;;;3.00;99.90;;;;;;10308851;28;20210;-83
2020/12/03 16:29:36;;;;;;;22.13;13.20;;;3.10;99.90;;;;;;10313154;28;20700;-85
2020/12/03 16:34:58;;;;;;;22.13;13.50;;;3.20;99.90;;;;;;10346129;28;20196;-85
2020/12/03 16:40:21;;;;;;;21.93;12.80;;;3.20;99.90;;;;;;10352056;28;20307;-85
2020/12/03 16:45:42;;;;;;;23.43;13.90;;;3.20;99.90;;;;;;10337038;28;20203;-85
2020/12/03 16:51:04;;;;;;;20.40;12.30;;;3.30;99.90;;;;;;10350816;28;20214;-83
2020/12/03 16:56:28;;;;;;;20.73;12.27;;;3.30;99.90;;;;;;10309799;28;20195;-84
2020/12/03 17:01:50;;;;;;;19.07;11.50;;;3.40;99.90;;;;;;10308704;28;20223;-84
2020/12/03 17:07:12;;;;;;;20.53;12.37;;;3.40;99.90;;;;;;10339961;28;20201;-86
2020/12/03 17:12:34;;;;;;;22.27;12.83;;;3.30;99.90;;;;;;10354736;28;20232;-84
2020/12/03 17:17:56;;;;;;;19.10;11.67;;;3.30;99.90;;;;;;10362601;28;20233;-84
2020/12/03 17:23:17;;;;;;;22.40;13.07;;;3.30;99.90;;;;;;10366140;28;20215;-85
2020/12/03 17:28:42;;;;;;;19.47;11.83;;;3.30;99.90;;;;;;10355544;28;20292;-87
2020/12/03 17:34:04;;;;;;;18.70;13.03;;;3.40;99.90;;;;;;10345519;28;20989;-85
2020/12/03 17:39:25;;;;;;;19.67;12.60;;;3.40;99.90;;;;;;10346436;28;20223;-85
2020/12/03 17:44:48;;;;;;;21.00;11.73;;;3.40;99.90;;;;;;10355524;28;20202;-86
2020/12/03 17:50:10;;;;;;;18.87;10.87;;;3.40;99.90;;;;;;10345867;28;20224;-83
2020/12/03 17:55:31;;;;;;;18.53;11.57;;;3.40;99.90;;;;;;10392572;28;20293;-85
2020/12/03 18:00:54;;;;;;;17.70;11.00;;;3.40;99.90;;;;;;10360264;28;20227;-87
2020/12/03 18:06:16;;;;;;;17.43;11.00;;;3.50;99.90;;;;;;10355591;28;20200;-87
2020/12/03 18:11:37;;;;;;;17.33;11.63;;;3.50;99.90;;;;;;10360684;28;20216;-86
2020/12/03 18:17:00;;;;;;;16.87;10.80;;;3.50;99.90;;;;;;10331923;28;20276;-84
2020/12/03 18:22:21;;;;;;;19.27;11.07;;;3.40;99.90;;;;;;10388395;28;20253;-84
2020/12/03 18:27:43;;;;;;;18.77;12.13;;;3.40;99.90;;;;;;10383332;28;20260;-83
2020/12/03 18:33:05;;;;;;;16.17;10.13;;;3.40;99.90;;;;;;10348199;28;20643;-84
2020/12/03 18:38:27;;;;;;;21.10;11.77;;;3.30;99.90;;;;;;10372330;28;20290;-81
2020/12/03 18:43:48;;;;;;;18.10;11.10;;;3.30;99.90;;;;;;10297701;28;20626;-83
2020/12/03 18:49:11;;;;;;;18.50;10.83;;;3.20;99.90;;;;;;10300499;28;20222;-83
2020/12/03 18:54:32;;;;;;;19.23;11.80;;;3.20;99.90;;;;;;10341474;28;20199;-82
2020/12/03 18:59:54;;;;;;;17.80;10.90;;;3.20;99.90;;;;;;10352217;28;20301;-84
2020/12/03 19:05:16;;;;;;;20.57;11.93;;;3.10;99.90;;;;;;10303917;28;20254;-86
2020/12/03 21:11:37;;;;;;;18.73;10.10;;;3.10;99.90;;;;;;10349011;23;20714;-84
2020/12/03 21:16:59;;;;;;;14.80;9.20;;;3.10;99.90;;;;;;10302931;28;20186;-87
2020/12/03 21:22:20;;;;;;;16.73;9.33;;;3.10;99.90;;;;;;10303157;28;20215;-86
2020/12/03 21:27:46;;;;;;;13.33;7.77;;;3.10;99.90;;;;;;10301441;28;20250;-86
2020/12/03 21:33:07;;;;;;;17.17;10.53;;;3.10;99.90;;;;;;10304649;28;20273;-87
2020/12/03 21:38:29;;;;;;;17.70;10.20;;;3.10;99.90;;;;;;10304526;28;20283;-86
2020/12/03 21:43:51;;;;;;;18.27;10.60;;;3.10;99.90;;;;;;10305866;28;20233;-85
2020/12/03 21:49:13;;;;;;;17.07;10.60;;;3.20;99.90;;;;;;10304600;28;20226;-85
2020/12/03 21:54:34;;;;;;;17.30;10.50;;;3.20;99.90;;;;;;10297382;28;20342;-87
2020/12/03 21:59:57;;;;;;;16.10;9.70;;;3.10;99.90;;;;;;10285069;28;20376;-87
2020/12/03 22:05:18;;;;;;;18.27;10.60;;;3.00;99.90;;;;;;10305652;28;20247;-85
2020/12/03 22:10:39;;;;;;;18.80;10.40;;;3.00;99.90;;;;;;10290142;28;20219;-85
2020/12/03 22:16:02;;;;;;;16.17;9.80;;;2.90;99.90;;;;;;10290825;28;20194;-86
2020/12/03 22:21:23;;;;;;;14.90;9.23;;;3.00;99.90;;;;;;10303628;28;20217;-84
2020/12/03 22:26:45;;;;;;;16.97;10.43;;;2.90;99.90;;;;;;10338353;28;20184;-81
2020/12/03 22:32:07;;;;;;;16.77;10.37;;;2.80;99.90;;;;;;10340142;28;20217;-84
2020/12/03 22:37:29;;;;;;;15.83;8.50;;;2.80;99.90;;;;;;10310752;28;20283;-86
